sensor_id;sensor_type;location;lat;lon;timestamp;P1;durP1;ratioP1;P2;durP2;ratioP2
82032;SDS011;71595;52.180;4.512;2024-01-10T00:02:19;3.92;;;1.88;;
82032;SDS011;71595;52.180;4.512;2024-01-10T00:04:44;4.30;;;1.92;;
82032;SDS011;71595;52.180;4.512;2024-01-10T00:07:10;4.45;;;1.88;;
82032;SDS011;71595;52.180;4.512;2024-01-10T00:09:35;5.43;;;1.92;;
82032;SDS011;71595;52.180;4.512;2024-01-10T00:12:00;5.93;;;1.98;;
82032;SDS011;71595;52.180;4.512;2024-01-10T00:14:26;3.20;;;2.00;;
82032;SDS011;71595;52.180;4.512;2024-01-10T00:16:51;4.82;;;2.20;;
82032;SDS011;71595;52.180;4.512;2024-01-10T00:19:16;3.38;;;1.50;;
82032;SDS011;71595;52.180;4.512;2024-01-10T00:21:42;3.58;;;2.05;;
82032;SDS011;71595;52.180;4.512;2024-01-10T00:24:07;4.50;;;2.15;;
82032;SDS011;71595;52.180;4.512;2024-01-10T00:26:33;3.47;;;1.85;;
82032;SDS011;71595;52.180;4.512;2024-01-10T00:28:58;3.60;;;1.65;;
82032;SDS011;71595;52.180;4.512;2024-01-10T00:31:23;5.40;;;2.33;;
82032;SDS011;71595;52.180;4.512;2024-01-10T00:33:49;4.07;;;1.98;;
82032;SDS011;71595;52.180;4.512;2024-01-10T00:36:14;3.60;;;1.98;;
82032;SDS011;71595;52.180;4.512;2024-01-10T00:38:40;3.92;;;1.98;;
82032;SDS011;71595;52.180;4.512;2024-01-10T00:41:05;4.25;;;1.90;;
82032;SDS011;71595;52.180;4.512;2024-01-10T00:43:30;3.60;;;1.77;;
82032;SDS011;71595;52.180;4.512;2024-01-10T00:45:56;5.22;;;1.90;;
82032;SDS011;71595;52.180;4.512;2024-01-10T00:48:22;3.92;;;1.80;;
82032;SDS011;71595;52.180;4.512;2024-01-10T00:50:47;6.15;;;2.30;;
82032;SDS011;71595;52.180;4.512;2024-01-10T00:53:13;2.72;;;1.63;;
82032;SDS011;71595;52.180;4.512;2024-01-10T00:55:38;4.38;;;1.90;;
82032;SDS011;71595;52.180;4.512;2024-01-10T00:58:04;3.22;;;1.98;;
82032;SDS011;71595;52.180;4.512;2024-01-10T01:00:29;3.58;;;1.95;;
82032;SDS011;71595;52.180;4.512;2024-01-10T01:02:54;5.60;;;2.20;;
82032;SDS011;71595;52.180;4.512;2024-01-10T01:05:20;4.05;;;1.95;;
82032;SDS011;71595;52.180;4.512;2024-01-10T01:07:45;3.28;;;2.05;;
82032;SDS011;71595;52.180;4.512;2024-01-10T01:10:11;4.38;;;2.15;;
82032;SDS011;71595;52.180;4.512;2024-01-10T01:12:36;5.05;;;2.45;;
82032;SDS011;71595;52.180;4.512;2024-01-10T01:15:02;4.05;;;2.15;;
82032;SDS011;71595;52.180;4.512;2024-01-10T01:17:28;4.03;;;2.15;;
82032;SDS011;71595;52.180;4.512;2024-01-10T01:19:54;4.88;;;1.88;;
82032;SDS011;71595;52.180;4.512;2024-01-10T01:22:19;4.68;;;2.05;;
82032;SDS011;71595;52.180;4.512;2024-01-10T01:24:44;5.07;;;1.95;;
82032;SDS011;71595;52.180;4.512;2024-01-10T01:27:10;5.43;;;2.15;;
82032;SDS011;71595;52.180;4.512;2024-01-10T01:29:35;2.90;;;1.67;;
82032;SDS011;71595;52.180;4.512;2024-01-10T01:32:00;4.95;;;1.80;;
82032;SDS011;71595;52.180;4.512;2024-01-10T01:34:26;5.97;;;2.90;;
82032;SDS011;71595;52.180;4.512;2024-01-10T01:36:51;4.22;;;2.00;;
82032;SDS011;71595;52.180;4.512;2024-01-10T01:39:17;7.10;;;2.60;;
82032;SDS011;71595;52.180;4.512;2024-01-10T01:44:08;3.78;;;1.92;;
82032;SDS011;71595;52.180;4.512;2024-01-10T01:46:34;5.18;;;2.22;;
82032;SDS011;71595;52.180;4.512;2024-01-10T01:49:00;5.70;;;2.88;;
82032;SDS011;71595;52.180;4.512;2024-01-10T01:51:26;3.70;;;2.20;;
82032;SDS011;71595;52.180;4.512;2024-01-10T01:53:54;6.03;;;2.63;;
82032;SDS011;71595;52.180;4.512;2024-01-10T01:58:46;5.40;;;2.28;;
82032;SDS011;71595;52.180;4.512;2024-01-10T02:01:12;4.55;;;2.30;;
82032;SDS011;71595;52.180;4.512;2024-01-10T02:03:39;4.93;;;2.67;;
82032;SDS011;71595;52.180;4.512;2024-01-10T02:06:04;4.65;;;2.78;;
82032;SDS011;71595;52.180;4.512;2024-01-10T02:08:31;5.13;;;2.75;;
82032;SDS011;71595;52.180;4.512;2024-01-10T02:10:58;3.78;;;2.45;;
82032;SDS011;71595;52.180;4.512;2024-01-10T02:13:24;6.10;;;3.20;;
82032;SDS011;71595;52.180;4.512;2024-01-10T02:15:49;6.05;;;2.70;;
82032;SDS011;71595;52.180;4.512;2024-01-10T02:18:16;5.03;;;2.70;;
82032;SDS011;71595;52.180;4.512;2024-01-10T02:20:45;5.97;;;3.05;;
82032;SDS011;71595;52.180;4.512;2024-01-10T02:23:10;5.70;;;2.90;;
82032;SDS011;71595;52.180;4.512;2024-01-10T02:25:36;6.70;;;3.50;;
82032;SDS011;71595;52.180;4.512;2024-01-10T02:28:02;8.15;;;3.10;;
82032;SDS011;71595;52.180;4.512;2024-01-10T02:30:28;6.85;;;3.05;;
82032;SDS011;71595;52.180;4.512;2024-01-10T02:32:53;5.93;;;3.67;;
82032;SDS011;71595;52.180;4.512;2024-01-10T02:35:19;5.97;;;3.15;;
82032;SDS011;71595;52.180;4.512;2024-01-10T02:37:44;5.05;;;2.70;;
82032;SDS011;71595;52.180;4.512;2024-01-10T02:40:10;6.20;;;3.05;;
82032;SDS011;71595;52.180;4.512;2024-01-10T02:42:36;5.22;;;2.90;;
82032;SDS011;71595;52.180;4.512;2024-01-10T02:45:01;5.72;;;3.20;;
82032;SDS011;71595;52.180;4.512;2024-01-10T02:47:27;5.50;;;3.38;;
82032;SDS011;71595;52.180;4.512;2024-01-10T02:49:54;5.85;;;3.22;;
82032;SDS011;71595;52.180;4.512;2024-01-10T02:52:19;6.43;;;3.10;;
82032;SDS011;71595;52.180;4.512;2024-01-10T02:54:45;6.28;;;3.53;;
82032;SDS011;71595;52.180;4.512;2024-01-10T02:57:10;5.95;;;3.60;;
82032;SDS011;71595;52.180;4.512;2024-01-10T02:59:36;5.10;;;2.95;;
82032;SDS011;71595;52.180;4.512;2024-01-10T03:02:01;5.47;;;2.78;;
82032;SDS011;71595;52.180;4.512;2024-01-10T03:04:27;6.13;;;3.05;;
82032;SDS011;71595;52.180;4.512;2024-01-10T03:06:52;8.13;;;3.40;;
82032;SDS011;71595;52.180;4.512;2024-01-10T03:09:17;5.35;;;3.25;;
82032;SDS011;71595;52.180;4.512;2024-01-10T03:11:43;7.05;;;3.13;;
82032;SDS011;71595;52.180;4.512;2024-01-10T03:14:09;6.38;;;3.47;;
82032;SDS011;71595;52.180;4.512;2024-01-10T03:16:35;6.13;;;3.35;;
82032;SDS011;71595;52.180;4.512;2024-01-10T03:19:01;8.50;;;3.38;;
82032;SDS011;71595;52.180;4.512;2024-01-10T03:21:27;7.13;;;4.10;;
82032;SDS011;71595;52.180;4.512;2024-01-10T03:23:54;5.88;;;3.28;;
82032;SDS011;71595;52.180;4.512;2024-01-10T03:26:21;6.43;;;3.38;;
82032;SDS011;71595;52.180;4.512;2024-01-10T03:28:46;7.22;;;3.35;;
82032;SDS011;71595;52.180;4.512;2024-01-10T03:31:12;6.43;;;3.13;;
82032;SDS011;71595;52.180;4.512;2024-01-10T03:33:37;5.75;;;3.13;;
82032;SDS011;71595;52.180;4.512;2024-01-10T03:36:03;6.50;;;3.20;;
82032;SDS011;71595;52.180;4.512;2024-01-10T03:38:28;8.05;;;3.63;;
82032;SDS011;71595;52.180;4.512;2024-01-10T03:40:54;6.28;;;3.45;;
82032;SDS011;71595;52.180;4.512;2024-01-10T03:43:19;4.95;;;3.17;;
82032;SDS011;71595;52.180;4.512;2024-01-10T03:45:44;6.10;;;3.58;;
82032;SDS011;71595;52.180;4.512;2024-01-10T03:48:10;8.60;;;3.20;;
82032;SDS011;71595;52.180;4.512;2024-01-10T03:50:35;6.70;;;3.40;;
82032;SDS011;71595;52.180;4.512;2024-01-10T03:53:01;6.30;;;3.10;;
82032;SDS011;71595;52.180;4.512;2024-01-10T03:55:26;5.82;;;3.60;;
82032;SDS011;71595;52.180;4.512;2024-01-10T03:57:52;7.45;;;3.50;;
82032;SDS011;71595;52.180;4.512;2024-01-10T04:00:17;7.43;;;3.08;;
82032;SDS011;71595;52.180;4.512;2024-01-10T04:02:42;5.15;;;2.95;;
82032;SDS011;71595;52.180;4.512;2024-01-10T04:05:08;6.30;;;3.20;;
82032;SDS011;71595;52.180;4.512;2024-01-10T04:07:40;7.00;;;3.47;;
82032;SDS011;71595;52.180;4.512;2024-01-10T04:10:09;5.20;;;3.20;;
82032;SDS011;71595;52.180;4.512;2024-01-10T04:15:01;4.57;;;2.63;;
82032;SDS011;71595;52.180;4.512;2024-01-10T04:17:26;6.93;;;3.55;;
82032;SDS011;71595;52.180;4.512;2024-01-10T04:19:52;8.68;;;4.15;;
82032;SDS011;71595;52.180;4.512;2024-01-10T04:22:17;6.00;;;3.60;;
82032;SDS011;71595;52.180;4.512;2024-01-10T04:24:42;6.40;;;3.65;;
82032;SDS011;71595;52.180;4.512;2024-01-10T04:27:08;6.45;;;3.33;;
82032;SDS011;71595;52.180;4.512;2024-01-10T04:29:33;5.93;;;3.53;;
82032;SDS011;71595;52.180;4.512;2024-01-10T04:31:59;6.13;;;3.50;;
82032;SDS011;71595;52.180;4.512;2024-01-10T04:34:24;8.10;;;4.40;;
82032;SDS011;71595;52.180;4.512;2024-01-10T04:36:49;6.95;;;3.22;;
82032;SDS011;71595;52.180;4.512;2024-01-10T04:39:15;7.43;;;3.55;;
82032;SDS011;71595;52.180;4.512;2024-01-10T04:41:40;6.65;;;3.53;;
82032;SDS011;71595;52.180;4.512;2024-01-10T04:44:05;6.78;;;4.00;;
82032;SDS011;71595;52.180;4.512;2024-01-10T04:46:31;5.10;;;3.13;;
82032;SDS011;71595;52.180;4.512;2024-01-10T04:48:56;4.97;;;2.92;;
82032;SDS011;71595;52.180;4.512;2024-01-10T04:51:21;6.28;;;3.53;;
82032;SDS011;71595;52.180;4.512;2024-01-10T04:53:47;5.70;;;3.05;;
82032;SDS011;71595;52.180;4.512;2024-01-10T04:56:12;6.53;;;3.22;;
82032;SDS011;71595;52.180;4.512;2024-01-10T04:58:38;6.30;;;3.47;;
82032;SDS011;71595;52.180;4.512;2024-01-10T05:01:03;6.93;;;3.50;;
82032;SDS011;71595;52.180;4.512;2024-01-10T05:03:29;6.13;;;3.15;;
82032;SDS011;71595;52.180;4.512;2024-01-10T05:05:54;5.13;;;3.25;;
82032;SDS011;71595;52.180;4.512;2024-01-10T05:08:19;6.85;;;3.72;;
82032;SDS011;71595;52.180;4.512;2024-01-10T05:10:47;7.05;;;3.30;;
82032;SDS011;71595;52.180;4.512;2024-01-10T05:13:13;5.60;;;3.25;;
82032;SDS011;71595;52.180;4.512;2024-01-10T05:15:38;8.00;;;3.60;;
82032;SDS011;71595;52.180;4.512;2024-01-10T05:18:04;4.50;;;3.08;;
82032;SDS011;71595;52.180;4.512;2024-01-10T05:22:56;5.70;;;2.75;;
82032;SDS011;71595;52.180;4.512;2024-01-10T05:25:24;5.70;;;3.10;;
82032;SDS011;71595;52.180;4.512;2024-01-10T05:27:49;6.93;;;3.25;;
82032;SDS011;71595;52.180;4.512;2024-01-10T05:30:15;7.93;;;2.90;;
82032;SDS011;71595;52.180;4.512;2024-01-10T05:32:41;5.95;;;3.28;;
82032;SDS011;71595;52.180;4.512;2024-01-10T05:35:08;5.45;;;3.33;;
82032;SDS011;71595;52.180;4.512;2024-01-10T05:37:35;5.05;;;3.13;;
82032;SDS011;71595;52.180;4.512;2024-01-10T05:40:01;5.90;;;3.20;;
82032;SDS011;71595;52.180;4.512;2024-01-10T05:42:26;7.25;;;3.42;;
82032;SDS011;71595;52.180;4.512;2024-01-10T05:44:52;6.18;;;3.15;;
82032;SDS011;71595;52.180;4.512;2024-01-10T05:47:18;4.30;;;2.78;;
82032;SDS011;71595;52.180;4.512;2024-01-10T05:49:43;6.53;;;3.17;;
82032;SDS011;71595;52.180;4.512;2024-01-10T05:52:09;5.45;;;3.08;;
82032;SDS011;71595;52.180;4.512;2024-01-10T05:54:34;6.53;;;3.50;;
82032;SDS011;71595;52.180;4.512;2024-01-10T05:56:59;6.03;;;2.90;;
82032;SDS011;71595;52.180;4.512;2024-01-10T05:59:27;6.65;;;3.28;;
82032;SDS011;71595;52.180;4.512;2024-01-10T06:01:53;6.65;;;2.88;;
82032;SDS011;71595;52.180;4.512;2024-01-10T06:04:19;5.97;;;3.03;;
82032;SDS011;71595;52.180;4.512;2024-01-10T06:06:44;4.50;;;2.75;;
82032;SDS011;71595;52.180;4.512;2024-01-10T06:09:10;6.53;;;3.42;;
82032;SDS011;71595;52.180;4.512;2024-01-10T06:11:40;9.02;;;3.35;;
82032;SDS011;71595;52.180;4.512;2024-01-10T06:14:06;6.28;;;3.30;;
82032;SDS011;71595;52.180;4.512;2024-01-10T06:16:32;7.13;;;3.10;;
82032;SDS011;71595;52.180;4.512;2024-01-10T06:18:57;7.32;;;3.63;;
82032;SDS011;71595;52.180;4.512;2024-01-10T06:21:22;6.05;;;2.97;;
82032;SDS011;71595;52.180;4.512;2024-01-10T06:23:48;5.82;;;3.30;;
82032;SDS011;71595;52.180;4.512;2024-01-10T06:26:13;6.43;;;3.17;;
82032;SDS011;71595;52.180;4.512;2024-01-10T06:28:39;6.05;;;3.35;;
82032;SDS011;71595;52.180;4.512;2024-01-10T06:31:04;9.00;;;3.47;;
82032;SDS011;71595;52.180;4.512;2024-01-10T06:33:30;6.47;;;3.03;;
82032;SDS011;71595;52.180;4.512;2024-01-10T06:35:55;7.88;;;3.78;;
82032;SDS011;71595;52.180;4.512;2024-01-10T06:38:21;5.63;;;3.10;;
82032;SDS011;71595;52.180;4.512;2024-01-10T06:40:48;6.50;;;3.25;;
82032;SDS011;71595;52.180;4.512;2024-01-10T06:43:14;6.57;;;3.50;;
82032;SDS011;71595;52.180;4.512;2024-01-10T06:45:40;8.27;;;3.08;;
82032;SDS011;71595;52.180;4.512;2024-01-10T06:48:07;6.18;;;2.80;;
82032;SDS011;71595;52.180;4.512;2024-01-10T06:50:32;5.20;;;2.97;;
82032;SDS011;71595;52.180;4.512;2024-01-10T06:53:01;6.53;;;2.75;;
82032;SDS011;71595;52.180;4.512;2024-01-10T06:55:26;6.72;;;3.08;;
82032;SDS011;71595;52.180;4.512;2024-01-10T06:57:53;5.55;;;2.67;;
82032;SDS011;71595;52.180;4.512;2024-01-10T07:00:20;6.22;;;3.30;;
82032;SDS011;71595;52.180;4.512;2024-01-10T07:02:48;6.07;;;2.92;;
82032;SDS011;71595;52.180;4.512;2024-01-10T07:05:14;5.43;;;2.83;;
82032;SDS011;71595;52.180;4.512;2024-01-10T07:07:41;6.40;;;3.35;;
82032;SDS011;71595;52.180;4.512;2024-01-10T07:10:07;6.85;;;3.67;;
82032;SDS011;71595;52.180;4.512;2024-01-10T07:12:33;5.03;;;2.75;;
82032;SDS011;71595;52.180;4.512;2024-01-10T07:17:24;8.00;;;3.45;;
82032;SDS011;71595;52.180;4.512;2024-01-10T07:19:50;6.63;;;2.97;;
82032;SDS011;71595;52.180;4.512;2024-01-10T07:22:15;4.95;;;2.78;;
82032;SDS011;71595;52.180;4.512;2024-01-10T07:24:43;6.53;;;3.13;;
82032;SDS011;71595;52.180;4.512;2024-01-10T07:27:09;7.15;;;3.60;;
82032;SDS011;71595;52.180;4.512;2024-01-10T07:29:34;7.03;;;3.95;;
82032;SDS011;71595;52.180;4.512;2024-01-10T07:32:00;6.50;;;3.35;;
82032;SDS011;71595;52.180;4.512;2024-01-10T07:34:25;5.22;;;3.10;;
82032;SDS011;71595;52.180;4.512;2024-01-10T07:36:51;4.75;;;2.80;;
82032;SDS011;71595;52.180;4.512;2024-01-10T07:39:19;7.75;;;2.90;;
82032;SDS011;71595;52.180;4.512;2024-01-10T07:41:44;5.40;;;3.15;;
82032;SDS011;71595;52.180;4.512;2024-01-10T07:44:10;6.15;;;3.30;;
82032;SDS011;71595;52.180;4.512;2024-01-10T07:46:35;4.20;;;2.90;;
82032;SDS011;71595;52.180;4.512;2024-01-10T07:49:03;6.35;;;3.22;;
82032;SDS011;71595;52.180;4.512;2024-01-10T07:51:30;6.90;;;3.00;;
82032;SDS011;71595;52.180;4.512;2024-01-10T07:53:55;8.05;;;3.22;;
82032;SDS011;71595;52.180;4.512;2024-01-10T07:56:21;5.82;;;3.33;;
82032;SDS011;71595;52.180;4.512;2024-01-10T07:58:46;5.90;;;2.80;;
82032;SDS011;71595;52.180;4.512;2024-01-10T08:01:12;5.20;;;2.90;;
82032;SDS011;71595;52.180;4.512;2024-01-10T08:03:37;6.75;;;3.10;;
82032;SDS011;71595;52.180;4.512;2024-01-10T08:06:02;6.00;;;3.08;;
82032;SDS011;71595;52.180;4.512;2024-01-10T08:08:28;4.88;;;2.95;;
82032;SDS011;71595;52.180;4.512;2024-01-10T08:10:55;4.53;;;2.47;;
82032;SDS011;71595;52.180;4.512;2024-01-10T08:13:21;6.13;;;3.28;;
82032;SDS011;71595;52.180;4.512;2024-01-10T08:15:46;5.00;;;3.15;;
82032;SDS011;71595;52.180;4.512;2024-01-10T08:18:12;7.88;;;3.65;;
82032;SDS011;71595;52.180;4.512;2024-01-10T08:20:39;5.78;;;3.25;;
82032;SDS011;71595;52.180;4.512;2024-01-10T08:23:04;6.72;;;3.50;;
82032;SDS011;71595;52.180;4.512;2024-01-10T08:25:30;4.78;;;2.80;;
82032;SDS011;71595;52.180;4.512;2024-01-10T08:27:55;4.88;;;2.95;;
82032;SDS011;71595;52.180;4.512;2024-01-10T08:30:22;6.55;;;3.55;;
82032;SDS011;71595;52.180;4.512;2024-01-10T08:32:48;6.72;;;3.08;;
82032;SDS011;71595;52.180;4.512;2024-01-10T08:35:14;5.88;;;3.53;;
82032;SDS011;71595;52.180;4.512;2024-01-10T08:37:39;5.70;;;3.05;;
82032;SDS011;71595;52.180;4.512;2024-01-10T08:40:08;4.85;;;2.92;;
82032;SDS011;71595;52.180;4.512;2024-01-10T08:45:59;4.53;;;2.65;;
82032;SDS011;71595;52.180;4.512;2024-01-10T08:48:24;6.50;;;2.95;;
82032;SDS011;71595;52.180;4.512;2024-01-10T08:50:50;6.95;;;3.25;;
82032;SDS011;71595;52.180;4.512;2024-01-10T08:53:16;6.28;;;2.92;;
82032;SDS011;71595;52.180;4.512;2024-01-10T08:55:41;5.75;;;2.97;;
82032;SDS011;71595;52.180;4.512;2024-01-10T08:58:07;7.35;;;3.30;;
82032;SDS011;71595;52.180;4.512;2024-01-10T09:00:32;7.70;;;3.05;;
82032;SDS011;71595;52.180;4.512;2024-01-10T09:02:59;5.38;;;2.92;;
82032;SDS011;71595;52.180;4.512;2024-01-10T09:05:24;4.78;;;2.50;;
82032;SDS011;71595;52.180;4.512;2024-01-10T09:10:16;7.43;;;3.03;;
82032;SDS011;71595;52.180;4.512;2024-01-10T09:12:41;4.90;;;2.55;;
82032;SDS011;71595;52.180;4.512;2024-01-10T09:15:11;6.78;;;3.50;;
82032;SDS011;71595;52.180;4.512;2024-01-10T09:17:38;4.78;;;2.63;;
82032;SDS011;71595;52.180;4.512;2024-01-10T09:20:04;4.88;;;2.55;;
82032;SDS011;71595;52.180;4.512;2024-01-10T09:22:30;4.70;;;2.47;;
82032;SDS011;71595;52.180;4.512;2024-01-10T09:24:55;6.20;;;3.20;;
82032;SDS011;71595;52.180;4.512;2024-01-10T09:27:20;5.00;;;2.55;;
82032;SDS011;71595;52.180;4.512;2024-01-10T09:29:47;4.05;;;2.58;;
82032;SDS011;71595;52.180;4.512;2024-01-10T09:32:13;3.70;;;2.45;;
82032;SDS011;71595;52.180;4.512;2024-01-10T09:34:38;4.70;;;2.80;;
82032;SDS011;71595;52.180;4.512;2024-01-10T09:37:04;6.47;;;2.83;;
82032;SDS011;71595;52.180;4.512;2024-01-10T09:39:30;5.32;;;2.85;;
82032;SDS011;71595;52.180;4.512;2024-01-10T09:41:55;5.05;;;2.90;;
82032;SDS011;71595;52.180;4.512;2024-01-10T09:44:23;5.22;;;3.00;;
82032;SDS011;71595;52.180;4.512;2024-01-10T09:46:50;7.60;;;3.50;;
82032;SDS011;71595;52.180;4.512;2024-01-10T09:49:17;5.15;;;3.10;;
82032;SDS011;71595;52.180;4.512;2024-01-10T09:51:44;7.82;;;2.97;;
82032;SDS011;71595;52.180;4.512;2024-01-10T09:54:13;4.22;;;2.83;;
82032;SDS011;71595;52.180;4.512;2024-01-10T09:56:41;6.47;;;2.95;;
82032;SDS011;71595;52.180;4.512;2024-01-10T09:59:07;6.82;;;3.35;;
82032;SDS011;71595;52.180;4.512;2024-01-10T10:01:36;6.30;;;3.00;;
82032;SDS011;71595;52.180;4.512;2024-01-10T10:04:04;5.75;;;2.90;;
82032;SDS011;71595;52.180;4.512;2024-01-10T10:06:30;6.63;;;2.78;;
82032;SDS011;71595;52.180;4.512;2024-01-10T10:08:56;4.93;;;2.63;;
82032;SDS011;71595;52.180;4.512;2024-01-10T10:11:21;6.30;;;3.65;;
82032;SDS011;71595;52.180;4.512;2024-01-10T10:13:47;8.48;;;2.83;;
82032;SDS011;71595;52.180;4.512;2024-01-10T10:16:12;9.15;;;4.35;;
82032;SDS011;71595;52.180;4.512;2024-01-10T10:18:38;7.53;;;3.78;;
82032;SDS011;71595;52.180;4.512;2024-01-10T10:23:33;6.75;;;3.38;;
82032;SDS011;71595;52.180;4.512;2024-01-10T10:26:01;8.88;;;3.95;;
82032;SDS011;71595;52.180;4.512;2024-01-10T10:28:35;6.05;;;2.92;;
82032;SDS011;71595;52.180;4.512;2024-01-10T10:31:01;6.45;;;3.45;;
82032;SDS011;71595;52.180;4.512;2024-01-10T10:33:27;7.00;;;3.42;;
82032;SDS011;71595;52.180;4.512;2024-01-10T10:35:53;6.45;;;3.33;;
82032;SDS011;71595;52.180;4.512;2024-01-10T10:38:18;4.88;;;3.25;;
82032;SDS011;71595;52.180;4.512;2024-01-10T10:40:46;5.88;;;3.50;;
82032;SDS011;71595;52.180;4.512;2024-01-10T10:43:12;8.20;;;3.28;;
82032;SDS011;71595;52.180;4.512;2024-01-10T10:45:48;9.40;;;3.65;;
82032;SDS011;71595;52.180;4.512;2024-01-10T10:48:17;9.93;;;4.35;;
82032;SDS011;71595;52.180;4.512;2024-01-10T10:50:46;5.88;;;3.08;;
82032;SDS011;71595;52.180;4.512;2024-01-10T10:53:25;6.45;;;3.42;;
82032;SDS011;71595;52.180;4.512;2024-01-10T10:55:53;4.10;;;2.60;;
82032;SDS011;71595;52.180;4.512;2024-01-10T10:58:20;6.60;;;2.95;;
82032;SDS011;71595;52.180;4.512;2024-01-10T11:00:46;5.60;;;2.88;;
82032;SDS011;71595;52.180;4.512;2024-01-10T11:03:12;6.25;;;3.28;;
82032;SDS011;71595;52.180;4.512;2024-01-10T11:05:40;4.78;;;2.78;;
82032;SDS011;71595;52.180;4.512;2024-01-10T11:08:07;5.85;;;2.92;;
82032;SDS011;71595;52.180;4.512;2024-01-10T11:10:36;5.82;;;3.22;;
82032;SDS011;71595;52.180;4.512;2024-01-10T11:24:03;4.53;;;2.78;;
82032;SDS011;71595;52.180;4.512;2024-01-10T11:26:29;6.55;;;3.70;;
82032;SDS011;71595;52.180;4.512;2024-01-10T11:28:54;9.30;;;3.42;;
82032;SDS011;71595;52.180;4.512;2024-01-10T11:31:31;8.32;;;3.72;;
82032;SDS011;71595;52.180;4.512;2024-01-10T11:33:58;7.15;;;2.80;;
82032;SDS011;71595;52.180;4.512;2024-01-10T11:36:25;5.43;;;3.03;;
82032;SDS011;71595;52.180;4.512;2024-01-10T11:41:26;5.95;;;3.72;;
82032;SDS011;71595;52.180;4.512;2024-01-10T11:46:39;6.25;;;2.95;;
82032;SDS011;71595;52.180;4.512;2024-01-10T11:49:11;8.13;;;3.70;;
82032;SDS011;71595;52.180;4.512;2024-01-10T11:51:44;6.57;;;2.70;;
82032;SDS011;71595;52.180;4.512;2024-01-10T11:57:08;6.53;;;3.03;;
82032;SDS011;71595;52.180;4.512;2024-01-10T11:59:35;5.60;;;3.30;;
82032;SDS011;71595;52.180;4.512;2024-01-10T12:02:02;5.30;;;3.47;;
82032;SDS011;71595;52.180;4.512;2024-01-10T12:04:28;6.13;;;3.70;;
82032;SDS011;71595;52.180;4.512;2024-01-10T12:06:57;7.63;;;3.50;;
82032;SDS011;71595;52.180;4.512;2024-01-10T12:12:13;8.05;;;3.55;;
82032;SDS011;71595;52.180;4.512;2024-01-10T12:14:39;6.70;;;3.25;;
82032;SDS011;71595;52.180;4.512;2024-01-10T12:17:05;7.07;;;3.80;;
82032;SDS011;71595;52.180;4.512;2024-01-10T12:19:33;8.18;;;3.72;;
82032;SDS011;71595;52.180;4.512;2024-01-10T12:22:00;5.13;;;2.88;;
82032;SDS011;71595;52.180;4.512;2024-01-10T12:24:29;8.82;;;3.90;;
82032;SDS011;71595;52.180;4.512;2024-01-10T12:26:55;9.40;;;4.47;;
82032;SDS011;71595;52.180;4.512;2024-01-10T12:29:21;7.18;;;4.28;;
82032;SDS011;71595;52.180;4.512;2024-01-10T12:31:47;6.45;;;3.65;;
82032;SDS011;71595;52.180;4.512;2024-01-10T12:34:13;8.50;;;4.00;;
82032;SDS011;71595;52.180;4.512;2024-01-10T12:36:39;6.68;;;3.72;;
82032;SDS011;71595;52.180;4.512;2024-01-10T12:39:04;10.32;;;4.47;;
82032;SDS011;71595;52.180;4.512;2024-01-10T12:41:32;8.27;;;3.88;;
82032;SDS011;71595;52.180;4.512;2024-01-10T12:43:58;8.88;;;4.47;;
82032;SDS011;71595;52.180;4.512;2024-01-10T12:46:28;7.72;;;3.13;;
82032;SDS011;71595;52.180;4.512;2024-01-10T12:51:30;8.57;;;3.80;;
82032;SDS011;71595;52.180;4.512;2024-01-10T12:53:57;7.22;;;3.72;;
82032;SDS011;71595;52.180;4.512;2024-01-10T12:56:26;7.18;;;4.00;;
82032;SDS011;71595;52.180;4.512;2024-01-10T12:58:52;7.40;;;3.70;;
82032;SDS011;71595;52.180;4.512;2024-01-10T13:01:19;6.82;;;3.90;;
82032;SDS011;71595;52.180;4.512;2024-01-10T13:03:45;9.30;;;3.72;;
82032;SDS011;71595;52.180;4.512;2024-01-10T13:06:13;9.20;;;4.10;;
82032;SDS011;71595;52.180;4.512;2024-01-10T13:08:39;6.97;;;4.07;;
82032;SDS011;71595;52.180;4.512;2024-01-10T13:11:04;10.85;;;4.43;;
82032;SDS011;71595;52.180;4.512;2024-01-10T13:13:33;7.30;;;4.00;;
82032;SDS011;71595;52.180;4.512;2024-01-10T13:16:00;10.50;;;4.25;;
82032;SDS011;71595;52.180;4.512;2024-01-10T13:18:25;7.95;;;4.15;;
82032;SDS011;71595;52.180;4.512;2024-01-10T13:20:53;8.00;;;3.92;;
82032;SDS011;71595;52.180;4.512;2024-01-10T13:23:19;7.05;;;3.58;;
82032;SDS011;71595;52.180;4.512;2024-01-10T13:25:47;8.05;;;4.40;;
82032;SDS011;71595;52.180;4.512;2024-01-10T13:30:39;6.10;;;3.33;;
82032;SDS011;71595;52.180;4.512;2024-01-10T13:33:06;7.00;;;4.13;;
82032;SDS011;71595;52.180;4.512;2024-01-10T13:35:32;9.18;;;3.90;;
82032;SDS011;71595;52.180;4.512;2024-01-10T13:37:58;6.90;;;3.88;;
82032;SDS011;71595;52.180;4.512;2024-01-10T13:40:23;6.63;;;3.85;;
82032;SDS011;71595;52.180;4.512;2024-01-10T13:42:51;6.88;;;3.53;;
82032;SDS011;71595;52.180;4.512;2024-01-10T13:45:18;6.97;;;4.68;;
82032;SDS011;71595;52.180;4.512;2024-01-10T13:47:45;6.43;;;3.47;;
82032;SDS011;71595;52.180;4.512;2024-01-10T13:50:11;5.38;;;3.30;;
82032;SDS011;71595;52.180;4.512;2024-01-10T13:52:36;8.73;;;3.40;;
82032;SDS011;71595;52.180;4.512;2024-01-10T13:55:02;9.45;;;3.85;;
82032;SDS011;71595;52.180;4.512;2024-01-10T13:57:31;7.68;;;3.90;;
82032;SDS011;71595;52.180;4.512;2024-01-10T14:00:00;9.80;;;4.00;;
82032;SDS011;71595;52.180;4.512;2024-01-10T14:02:26;8.18;;;4.28;;
82032;SDS011;71595;52.180;4.512;2024-01-10T14:04:52;7.20;;;3.80;;
82032;SDS011;71595;52.180;4.512;2024-01-10T14:07:22;8.30;;;4.13;;
82032;SDS011;71595;52.180;4.512;2024-01-10T14:09:49;7.28;;;4.13;;
82032;SDS011;71595;52.180;4.512;2024-01-10T14:12:14;8.27;;;4.07;;
82032;SDS011;71595;52.180;4.512;2024-01-10T14:14:40;6.50;;;4.10;;
82032;SDS011;71595;52.180;4.512;2024-01-10T14:17:05;9.48;;;4.70;;
82032;SDS011;71595;52.180;4.512;2024-01-10T14:19:30;7.20;;;4.80;;
82032;SDS011;71595;52.180;4.512;2024-01-10T14:21:57;9.00;;;3.67;;
82032;SDS011;71595;52.180;4.512;2024-01-10T14:24:23;7.60;;;3.97;;
82032;SDS011;71595;52.180;4.512;2024-01-10T14:29:14;8.10;;;4.20;;
82032;SDS011;71595;52.180;4.512;2024-01-10T14:31:40;9.52;;;4.22;;
82032;SDS011;71595;52.180;4.512;2024-01-10T14:34:06;8.32;;;4.28;;
82032;SDS011;71595;52.180;4.512;2024-01-10T14:36:31;6.65;;;3.47;;
82032;SDS011;71595;52.180;4.512;2024-01-10T14:38:57;6.82;;;3.90;;
82032;SDS011;71595;52.180;4.512;2024-01-10T14:41:22;7.88;;;3.75;;
82032;SDS011;71595;52.180;4.512;2024-01-10T14:43:48;8.02;;;3.90;;
82032;SDS011;71595;52.180;4.512;2024-01-10T14:46:13;6.57;;;3.40;;
82032;SDS011;71595;52.180;4.512;2024-01-10T14:48:39;8.00;;;4.63;;
82032;SDS011;71595;52.180;4.512;2024-01-10T14:51:04;6.28;;;3.80;;
82032;SDS011;71595;52.180;4.512;2024-01-10T14:53:30;7.85;;;4.00;;
82032;SDS011;71595;52.180;4.512;2024-01-10T14:55:55;6.32;;;3.65;;
82032;SDS011;71595;52.180;4.512;2024-01-10T14:58:21;7.22;;;4.00;;
82032;SDS011;71595;52.180;4.512;2024-01-10T15:00:47;9.77;;;4.28;;
82032;SDS011;71595;52.180;4.512;2024-01-10T15:03:12;5.55;;;3.45;;
82032;SDS011;71595;52.180;4.512;2024-01-10T15:05:40;6.15;;;4.22;;
82032;SDS011;71595;52.180;4.512;2024-01-10T15:08:06;6.13;;;4.38;;
82032;SDS011;71595;52.180;4.512;2024-01-10T15:10:32;7.55;;;4.60;;
82032;SDS011;71595;52.180;4.512;2024-01-10T15:16:20;7.57;;;4.40;;
82032;SDS011;71595;52.180;4.512;2024-01-10T15:18:45;6.50;;;4.22;;
82032;SDS011;71595;52.180;4.512;2024-01-10T15:21:11;7.72;;;3.90;;
82032;SDS011;71595;52.180;4.512;2024-01-10T15:23:37;7.15;;;4.20;;
82032;SDS011;71595;52.180;4.512;2024-01-10T15:26:02;6.70;;;3.85;;
82032;SDS011;71595;52.180;4.512;2024-01-10T15:30:54;6.57;;;4.18;;
82032;SDS011;71595;52.180;4.512;2024-01-10T15:33:19;8.70;;;4.68;;
82032;SDS011;71595;52.180;4.512;2024-01-10T15:35:45;9.23;;;4.68;;
82032;SDS011;71595;52.180;4.512;2024-01-10T15:38:11;7.25;;;4.25;;